Time;durP1;ratioP1;P1;durP2;ratioP2;P2;SDS_P1;SDS_P2;PMS_P1;PMS_P2;Temp;Humidity;BMP_temperature;BMP_pressure;BME280_temperature;BME280_humidity;BME280_pressure;Samples;Min_cycle;Max_cycle;Signal;HPM_P1;HPM_P2
2022/03/22 00:01:26;;;;;;;81.03;39.73;;;;;;;;;;5091789;28;20055;-67
2022/03/22 00:03:52;;;;;;;76.83;39.63;;;;;;;;;;5090753;28;20047;-67
2022/03/22 00:06:18;;;;;;;83.43;39.77;;;;;;;;;;5090381;28;20044;-67
2022/03/22 00:08:45;;;;;;;82.10;39.00;;;;;;;;;;5090337;28;20039;-67
2022/03/22 00:11:11;;;;;;;81.07;40.77;;;;;;;;;;5098466;28;20039;-67
2022/03/22 00:13:38;;;;;;;86.63;40.73;;;;;;;;;;5109663;28;20061;-67
2022/03/22 00:16:04;;;;;;;90.73;42.80;;;;;;;;;;5109947;28;20082;-66
2022/03/22 00:18:30;;;;;;;85.30;41.77;;;;;;;;;;5097726;28;20047;-66
2022/03/22 00:20:57;;;;;;;94.97;45.97;;;;;;;;;;5093516;28;20705;-67
2022/03/22 00:23:24;;;;;;;93.73;43.90;;;;;;;;;;5095577;28;20046;-67
2022/03/22 00:25:50;;;;;;;97.80;47.10;;;;;;;;;;5110150;28;20051;-66
2022/03/22 00:28:16;;;;;;;98.70;44.40;;;;;;;;;;5110306;28;20044;-67
2022/03/22 00:30:42;;;;;;;84.27;40.83;;;;;;;;;;5110022;28;20039;-67
2022/03/22 00:33:09;;;;;;;81.77;37.93;;;;;;;;;;5110179;28;20050;-67
2022/03/22 00:35:36;;;;;;;79.40;38.17;;;;;;;;;;5107807;28;20059;-67
2022/03/22 00:38:04;;;;;;;82.17;37.37;;;;;;;;;;5109884;28;20433;-67
2022/03/22 00:40:30;;;;;;;86.20;40.03;;;;;;;;;;5110033;28;20058;-67
2022/03/22 00:42:57;;;;;;;82.00;41.30;;;;;;;;;;5102396;28;20465;-67
2022/03/22 00:45:25;;;;;;;91.93;43.30;;;;;;;;;;5089162;28;20063;-67
2022/03/22 00:47:52;;;;;;;86.17;40.50;;;;;;;;;;5070999;28;20056;-67
2022/03/22 00:50:19;;;;;;;95.53;43.43;;;;;;;;;;5089081;28;20079;-67
2022/03/22 00:52:45;;;;;;;89.13;42.87;;;;;;;;;;5089246;28;20500;-67
2022/03/22 00:55:12;;;;;;;96.57;45.20;;;;;;;;;;5089148;28;20051;-67
2022/03/22 00:57:38;;;;;;;99.07;45.60;;;;;;;;;;5089230;28;20047;-67
2022/03/22 01:00:06;;;;;;;85.63;45.20;;;;;;;;;;5089289;28;20099;-67
2022/03/22 01:02:34;;;;;;;93.00;45.47;;;;;;;;;;5089246;28;20422;-67
2022/03/22 01:05:00;;;;;;;99.87;45.73;;;;;;;;;;5097063;28;20084;-67
2022/03/22 01:07:27;;;;;;;104.37;46.13;;;;;;;;;;5089180;28;20044;-67
2022/03/22 01:09:53;;;;;;;90.00;46.10;;;;;;;;;;5089134;28;20055;-67
2022/03/22 01:12:20;;;;;;;95.87;44.97;;;;;;;;;;5088704;28;20490;-67
2022/03/22 01:14:46;;;;;;;96.83;45.63;;;;;;;;;;5103022;28;20081;-67
2022/03/22 01:17:12;;;;;;;91.20;44.50;;;;;;;;;;5109033;28;20129;-66
2022/03/22 01:19:39;;;;;;;100.63;45.33;;;;;;;;;;5107842;28;20047;-66
2022/03/22 01:22:08;;;;;;;97.33;45.10;;;;;;;;;;5091229;28;20130;-67
2022/03/22 01:24:34;;;;;;;88.90;43.53;;;;;;;;;;5109599;28;20043;-67
2022/03/22 01:27:00;;;;;;;97.40;46.63;;;;;;;;;;5109004;28;20165;-67
2022/03/22 01:29:26;;;;;;;94.53;44.20;;;;;;;;;;5109321;28;20051;-67
2022/03/22 01:31:52;;;;;;;101.20;44.97;;;;;;;;;;5109127;28;20059;-67
2022/03/22 01:34:18;;;;;;;89.73;41.87;;;;;;;;;;5098215;28;20163;-67
2022/03/22 01:36:45;;;;;;;91.97;45.67;;;;;;;;;;5089004;28;20056;-67
2022/03/22 01:39:11;;;;;;;82.97;40.60;;;;;;;;;;5088845;28;20409;-66
2022/03/22 01:41:37;;;;;;;94.37;44.50;;;;;;;;;;5088470;28;20060;-67
2022/03/22 01:44:03;;;;;;;97.53;45.17;;;;;;;;;;5088803;28;20043;-67
2022/03/22 01:46:30;;;;;;;86.17;41.07;;;;;;;;;;5088701;28;20414;-67
2022/03/22 01:48:56;;;;;;;84.77;41.70;;;;;;;;;;5088705;28;20059;-67
2022/03/22 01:51:22;;;;;;;92.67;41.40;;;;;;;;;;5088732;28;20075;-67
2022/03/22 01:53:49;;;;;;;86.50;42.40;;;;;;;;;;5088146;28;20050;-66
2022/03/22 01:56:15;;;;;;;95.20;42.77;;;;;;;;;;5089912;28;20142;-66
2022/03/22 01:58:41;;;;;;;102.00;47.20;;;;;;;;;;5092357;28;20051;-66
2022/03/22 02:06:38;;;;;;;106.17;45.27;;;;;;;;;;5112511;28;20063;-67
2022/03/22 02:09:04;;;;;;;86.77;43.17;;;;;;;;;;5113352;28;20414;-67
2022/03/22 02:11:31;;;;;;;89.40;44.07;;;;;;;;;;5112844;28;20432;-67
2022/03/22 02:13:57;;;;;;;86.43;41.80;;;;;;;;;;5106893;28;20051;-67
2022/03/22 02:16:24;;;;;;;82.30;38.40;;;;;;;;;;5112696;28;20040;-66
2022/03/22 02:18:51;;;;;;;81.97;42.57;;;;;;;;;;5100277;28;20036;-67
2022/03/22 02:21:20;;;;;;;88.67;42.70;;;;;;;;;;5091801;28;20113;-67
2022/03/22 02:23:46;;;;;;;90.67;43.77;;;;;;;;;;5074083;28;20044;-66
2022/03/22 02:26:12;;;;;;;87.97;40.00;;;;;;;;;;5092546;28;20044;-66
2022/03/22 02:28:38;;;;;;;87.93;38.73;;;;;;;;;;5091915;28;20059;-66
2022/03/22 02:31:04;;;;;;;82.13;38.10;;;;;;;;;;5112338;28;20039;-66
2022/03/22 02:33:30;;;;;;;90.57;39.13;;;;;;;;;;5111732;28;20047;-66
2022/03/22 02:35:56;;;;;;;76.80;38.23;;;;;;;;;;5111974;28;20075;-66
2022/03/22 02:38:22;;;;;;;79.40;39.43;;;;;;;;;;5093421;28;20044;-67
2022/03/22 02:40:48;;;;;;;84.40;39.63;;;;;;;;;;5110253;28;20490;-67
2022/03/22 02:43:15;;;;;;;88.70;39.63;;;;;;;;;;5111980;28;20035;-67
2022/03/22 02:45:41;;;;;;;106.03;45.50;;;;;;;;;;5097225;28;20832;-67
2022/03/22 02:48:07;;;;;;;87.40;41.73;;;;;;;;;;5091818;28;20048;-67
2022/03/22 02:50:33;;;;;;;88.43;41.23;;;;;;;;;;5092017;28;20040;-67
2022/03/22 02:53:01;;;;;;;89.23;42.63;;;;;;;;;;5090673;28;20048;-67
2022/03/22 02:55:27;;;;;;;89.60;43.50;;;;;;;;;;5098193;28;20043;-67
2022/03/22 02:57:53;;;;;;;90.57;42.87;;;;;;;;;;5111851;28;20046;-67
2022/03/22 03:00:19;;;;;;;79.60;40.67;;;;;;;;;;5111519;28;20047;-67
2022/03/22 03:02:49;;;;;;;89.73;42.07;;;;;;;;;;5111921;28;20044;-67
2022/03/22 03:05:15;;;;;;;88.77;43.00;;;;;;;;;;5109920;28;20433;-67
2022/03/22 03:07:41;;;;;;;88.47;41.77;;;;;;;;;;5099363;28;20406;-67
2022/03/22 03:10:08;;;;;;;87.73;43.77;;;;;;;;;;5091043;28;20152;-67
2022/03/22 03:12:34;;;;;;;94.33;43.93;;;;;;;;;;5091329;28;20104;-67
2022/03/22 03:15:00;;;;;;;99.37;44.20;;;;;;;;;;5091352;28;20074;-67
2022/03/22 03:17:26;;;;;;;106.57;46.63;;;;;;;;;;5096800;28;20514;-67
2022/03/22 03:19:52;;;;;;;84.87;40.27;;;;;;;;;;5111544;28;20092;-67
2022/03/22 03:22:18;;;;;;;76.37;36.90;;;;;;;;;;5111227;28;20051;-67
2022/03/22 03:24:44;;;;;;;79.53;40.53;;;;;;;;;;5111345;28;20058;-67
2022/03/22 03:27:10;;;;;;;81.70;41.67;;;;;;;;;;5111217;28;20054;-67
2022/03/22 03:29:36;;;;;;;86.43;42.47;;;;;;;;;;5103274;28;20040;-67
2022/03/22 03:32:02;;;;;;;88.37;41.23;;;;;;;;;;5091032;28;20044;-67
2022/03/22 03:34:28;;;;;;;74.07;39.13;;;;;;;;;;5090193;28;20673;-67
2022/03/22 03:36:55;;;;;;;88.30;41.73;;;;;;;;;;5090517;28;20557;-66
2022/03/22 03:39:21;;;;;;;96.93;42.23;;;;;;;;;;5090814;28;20047;-67
2022/03/22 03:42:00;;;;;;;86.07;40.60;;;;;;;;;;5090787;28;20498;-66
2022/03/22 03:47:15;;;;;;;88.07;41.53;;;;;;;;;;5090666;28;20116;-66
2022/03/22 03:49:45;;;;;;;90.03;43.43;;;;;;;;;;5090286;28;20767;-67
2022/03/22 03:52:13;;;;;;;79.30;41.90;;;;;;;;;;5090733;28;20044;-67
2022/03/22 03:54:39;;;;;;;86.33;43.23;;;;;;;;;;5090504;28;20135;-66
2022/03/22 03:57:06;;;;;;;94.73;43.47;;;;;;;;;;5090849;28;20066;-67
2022/03/22 03:59:33;;;;;;;92.57;46.07;;;;;;;;;;5090258;28;20487;-67
2022/03/22 04:01:59;;;;;;;95.97;45.40;;;;;;;;;;5090036;28;20101;-67
2022/03/22 04:04:25;;;;;;;94.00;43.23;;;;;;;;;;5090468;28;20080;-67
2022/03/22 04:06:51;;;;;;;87.87;41.60;;;;;;;;;;5100117;28;20035;-67
2022/03/22 04:09:17;;;;;;;89.73;43.33;;;;;;;;;;5110858;28;20047;-67
2022/03/22 04:11:44;;;;;;;84.50;41.20;;;;;;;;;;5110634;28;20066;-66
2022/03/22 04:14:10;;;;;;;93.67;43.90;;;;;;;;;;5110521;28;20083;-66
2022/03/22 04:16:36;;;;;;;88.17;43.70;;;;;;;;;;5108329;28;20040;-67
2022/03/22 04:19:07;;;;;;;95.33;44.20;;;;;;;;;;5109550;28;20499;-67
2022/03/22 04:21:34;;;;;;;80.90;42.23;;;;;;;;;;5110482;28;20154;-67
2022/03/22 04:24:01;;;;;;;89.07;43.97;;;;;;;;;;5100226;28;20051;-67
2022/03/22 04:26:28;;;;;;;87.70;43.60;;;;;;;;;;5089577;28;20101;-67
2022/03/22 04:34:23;;;;;;;100.97;46.47;;;;;;;;;;5108819;28;20079;-67
2022/03/22 04:36:55;;;;;;;93.37;46.17;;;;;;;;;;5109789;28;20050;-67
2022/03/22 04:39:23;;;;;;;101.67;47.67;;;;;;;;;;5110114;28;20054;-67
2022/03/22 04:41:49;;;;;;;91.23;46.10;;;;;;;;;;5108228;28;20035;-67
2022/03/22 04:44:17;;;;;;;96.50;47.13;;;;;;;;;;5110222;28;20047;-67
2022/03/22 04:46:43;;;;;;;90.00;45.27;;;;;;;;;;5109844;28;20044;-66
2022/03/22 04:49:09;;;;;;;87.90;43.40;;;;;;;;;;5109793;28;20046;-67
2022/03/22 04:57:05;;;;;;;92.43;44.67;;;;;;;;;;5089268;28;20044;-67
2022/03/22 04:59:31;;;;;;;91.60;44.07;;;;;;;;;;5089380;28;20048;-67
2022/03/22 05:01:57;;;;;;;117.50;52.77;;;;;;;;;;5089235;28;20040;-67
2022/03/22 05:04:23;;;;;;;111.20;46.90;;;;;;;;;;5089049;28;20047;-67
2022/03/22 05:06:49;;;;;;;92.03;44.53;;;;;;;;;;5098312;28;20042;-66
2022/03/22 05:09:15;;;;;;;90.87;43.10;;;;;;;;;;5109442;28;20039;-66
2022/03/22 05:11:41;;;;;;;109.83;48.17;;;;;;;;;;5109694;28;20044;-66
2022/03/22 05:14:08;;;;;;;103.30;47.93;;;;;;;;;;5109146;28;20572;-66
2022/03/22 05:16:35;;;;;;;96.73;46.07;;;;;;;;;;5108964;28;20051;-66
2022/03/22 05:19:02;;;;;;;115.63;48.50;;;;;;;;;;5109601;28;20035;-66
2022/03/22 05:21:28;;;;;;;109.93;47.20;;;;;;;;;;5101255;28;20394;-66
2022/03/22 05:23:54;;;;;;;94.20;44.50;;;;;;;;;;5090280;28;20036;-66
2022/03/22 05:26:20;;;;;;;109.47;45.67;;;;;;;;;;5088861;28;20051;-66
2022/03/22 05:28:47;;;;;;;101.83;46.77;;;;;;;;;;5088461;28;20046;-66
2022/03/22 05:31:16;;;;;;;94.73;43.23;;;;;;;;;;5088576;28;20677;-66
2022/03/22 05:33:43;;;;;;;88.10;43.73;;;;;;;;;;5088571;28;20720;-66
2022/03/22 05:36:09;;;;;;;101.20;46.40;;;;;;;;;;5088964;28;20056;-66
2022/03/22 05:38:35;;;;;;;93.93;47.53;;;;;;;;;;5088203;28;20548;-66
2022/03/22 05:41:02;;;;;;;97.77;46.27;;;;;;;;;;5089043;28;20043;-66
2022/03/22 05:43:29;;;;;;;117.43;50.67;;;;;;;;;;5088829;28;20044;-66
2022/03/22 05:45:55;;;;;;;106.80;47.50;;;;;;;;;;5092846;28;20502;-66
2022/03/22 05:48:21;;;;;;;111.00;47.83;;;;;;;;;;5099309;28;20048;-66
2022/03/22 05:50:47;;;;;;;111.93;48.67;;;;;;;;;;5094795;28;20456;-67
2022/03/22 05:53:14;;;;;;;98.00;46.80;;;;;;;;;;5099916;28;20065;-66
2022/03/22 05:55:41;;;;;;;88.00;45.27;;;;;;;;;;5099270;28;20044;-66
2022/03/22 05:58:07;;;;;;;115.57;50.83;;;;;;;;;;5103446;28;20111;-67
2022/03/22 06:00:34;;;;;;;99.10;48.23;;;;;;;;;;5095372;28;20102;-66
2022/03/22 06:03:00;;;;;;;116.63;51.90;;;;;;;;;;5088853;28;20454;-66
2022/03/22 06:05:27;;;;;;;90.17;47.63;;;;;;;;;;5088337;28;20044;-66
2022/03/22 06:07:53;;;;;;;93.70;47.47;;;;;;;;;;5088554;28;20105;-66
2022/03/22 06:10:20;;;;;;;101.23;48.60;;;;;;;;;;5091857;28;20035;-66
2022/03/22 06:12:47;;;;;;;99.90;48.53;;;;;;;;;;5108616;28;20044;-66
2022/03/22 06:15:14;;;;;;;122.83;53.07;;;;;;;;;;5108439;28;20048;-66
2022/03/22 06:17:41;;;;;;;88.90;46.03;;;;;;;;;;5107626;28;20159;-66
2022/03/22 06:20:07;;;;;;;101.80;52.70;;;;;;;;;;5108489;28;20110;-66
2022/03/22 06:22:33;;;;;;;88.63;44.70;;;;;;;;;;5108289;28;20043;-66
2022/03/22 06:24:59;;;;;;;95.03;45.80;;;;;;;;;;5104514;28;20099;-66
2022/03/22 06:27:25;;;;;;;93.93;47.00;;;;;;;;;;5088022;28;20043;-67
2022/03/22 06:29:51;;;;;;;88.23;46.13;;;;;;;;;;5091342;28;20410;-66
2022/03/22 06:32:17;;;;;;;89.63;48.20;;;;;;;;;;5087266;28;20505;-66
2022/03/22 06:34:44;;;;;;;102.47;51.90;;;;;;;;;;5087776;28;20060;-66
2022/03/22 06:37:10;;;;;;;82.80;45.27;;;;;;;;;;5088120;28;20414;-66
2022/03/22 06:39:36;;;;;;;81.67;43.10;;;;;;;;;;5087870;28;20066;-66
2022/03/22 06:42:03;;;;;;;73.00;41.93;;;;;;;;;;5094707;28;20501;-66
2022/03/22 06:44:29;;;;;;;80.23;42.60;;;;;;;;;;5101465;28;20051;-66
2022/03/22 06:46:55;;;;;;;82.23;44.30;;;;;;;;;;5089053;28;20044;-67
2022/03/22 06:49:23;;;;;;;83.83;44.33;;;;;;;;;;5101448;28;20040;-67
2022/03/22 06:51:49;;;;;;;69.70;40.90;;;;;;;;;;5092013;28;20766;-66
2022/03/22 06:54:15;;;;;;;77.47;44.00;;;;;;;;;;5093789;28;20157;-66
2022/03/22 06:56:41;;;;;;;72.43;41.17;;;;;;;;;;5104057;28;20040;-67
2022/03/22 06:59:07;;;;;;;72.10;40.67;;;;;;;;;;5106447;28;20043;-67
2022/03/22 07:01:34;;;;;;;76.87;42.17;;;;;;;;;;5103629;28;20047;-67
2022/03/22 07:04:00;;;;;;;79.53;42.80;;;;;;;;;;5102436;28;20140;-67
2022/03/22 07:06:26;;;;;;;68.53;39.70;;;;;;;;;;5089630;28;20165;-67
2022/03/22 07:08:54;;;;;;;78.80;42.87;;;;;;;;;;5096316;28;20031;-67
2022/03/22 07:14:04;;;;;;;66.23;39.40;;;;;;;;;;5109713;28;20409;-67
2022/03/22 07:16:30;;;;;;;60.90;36.37;;;;;;;;;;5107969;28;20047;-67
2022/03/22 07:18:56;;;;;;;67.80;36.40;;;;;;;;;;5103630;28;20059;-68
2022/03/22 07:21:22;;;;;;;57.47;32.93;;;;;;;;;;5102312;28;20040;-68
2022/03/22 07:23:48;;;;;;;50.37;31.37;;;;;;;;;;5089974;28;20604;-68
2022/03/22 07:26:16;;;;;;;52.63;33.23;;;;;;;;;;5098370;28;20036;-68
2022/03/22 07:28:43;;;;;;;50.30;30.80;;;;;;;;;;5097148;28;20040;-68
2022/03/22 07:31:09;;;;;;;46.00;31.60;;;;;;;;;;5109332;28;20086;-68
2022/03/22 07:33:37;;;;;;;56.07;30.53;;;;;;;;;;5092289;28;20119;-68
2022/03/22 07:36:03;;;;;;;45.77;28.87;;;;;;;;;;5092542;28;20130;-68
2022/03/22 07:38:29;;;;;;;48.03;29.53;;;;;;;;;;5100805;28;20062;-68
2022/03/22 07:40:55;;;;;;;46.97;28.93;;;;;;;;;;5090809;28;20635;-68
2022/03/22 07:43:21;;;;;;;42.40;27.67;;;;;;;;;;5090204;28;20119;-68
2022/03/22 07:45:47;;;;;;;46.73;26.87;;;;;;;;;;5100689;28;20251;-67
2022/03/22 07:48:13;;;;;;;43.90;26.70;;;;;;;;;;5108879;28;20413;-68
2022/03/22 07:53:24;;;;;;;47.47;25.80;;;;;;;;;;5098938;28;20510;-68
2022/03/22 07:55:50;;;;;;;39.93;25.33;;;;;;;;;;5106084;28;20047;-68
2022/03/22 07:58:16;;;;;;;41.17;26.23;;;;;;;;;;5092193;28;20051;-68
2022/03/22 08:00:42;;;;;;;48.93;26.73;;;;;;;;;;5101208;28;20039;-68
2022/03/22 08:03:10;;;;;;;43.53;25.67;;;;;;;;;;5102144;28;20048;-69
2022/03/22 08:05:37;;;;;;;43.60;26.40;;;;;;;;;;5105119;28;20103;-68
2022/03/22 08:08:06;;;;;;;38.60;25.57;;;;;;;;;;5089847;28;20042;-68
2022/03/22 08:10:32;;;;;;;41.20;24.73;;;;;;;;;;5089931;28;20514;-68
2022/03/22 08:12:59;;;;;;;35.47;23.93;;;;;;;;;;5097923;28;20493;-68
2022/03/22 08:15:25;;;;;;;37.47;23.97;;;;;;;;;;5097488;28;20054;-68
2022/03/22 08:17:51;;;;;;;40.50;24.37;;;;;;;;;;5100341;28;20162;-68
2022/03/22 08:20:18;;;;;;;38.60;22.80;;;;;;;;;;5089265;28;20505;-68
2022/03/22 08:22:49;;;;;;;36.70;23.60;;;;;;;;;;5090200;28;20044;-68
2022/03/22 08:25:16;;;;;;;35.03;23.47;;;;;;;;;;5088891;28;20059;-68
2022/03/22 08:27:42;;;;;;;36.53;23.07;;;;;;;;;;5104533;28;20047;-68
2022/03/22 08:30:10;;;;;;;36.07;23.03;;;;;;;;;;5091222;28;20058;-68
2022/03/22 08:32:36;;;;;;;39.73;22.83;;;;;;;;;;5089125;28;20052;-68
2022/03/22 08:35:02;;;;;;;36.20;20.23;;;;;;;;;;5089433;28;20056;-68
2022/03/22 08:37:28;;;;;;;32.67;20.90;;;;;;;;;;5088469;28;20704;-68
2022/03/22 08:39:54;;;;;;;30.33;19.83;;;;;;;;;;5092070;28;20044;-68
2022/03/22 08:42:20;;;;;;;32.37;20.57;;;;;;;;;;5102989;28;20047;-68
2022/03/22 08:44:48;;;;;;;34.27;22.07;;;;;;;;;;5071216;28;20067;-68
2022/03/22 08:47:14;;;;;;;32.53;20.27;;;;;;;;;;5099917;28;20816;-68
2022/03/22 08:49:40;;;;;;;33.93;21.37;;;;;;;;;;5098560;28;20119;-68
2022/03/22 08:52:07;;;;;;;32.77;20.40;;;;;;;;;;5101030;28;20147;-68
2022/03/22 08:54:33;;;;;;;33.00;19.90;;;;;;;;;;5098070;28;20047;-68
2022/03/22 08:56:59;;;;;;;33.07;21.30;;;;;;;;;;5100024;28;20055;-68
2022/03/22 08:59:25;;;;;;;29.77;19.70;;;;;;;;;;5107190;28;20152;-68
2022/03/22 09:01:51;;;;;;;30.57;19.87;;;;;;;;;;5108537;28;20059;-68
2022/03/22 09:07:01;;;;;;;27.07;18.97;;;;;;;;;;5109590;28;20043;-68
2022/03/22 09:09:30;;;;;;;31.77;19.97;;;;;;;;;;5091972;28;20055;-68
2022/03/22 09:11:56;;;;;;;31.63;20.33;;;;;;;;;;5106192;28;20044;-68
2022/03/22 09:14:22;;;;;;;30.43;20.67;;;;;;;;;;5090796;28;20181;-69
2022/03/22 09:16:48;;;;;;;29.37;20.17;;;;;;;;;;5087982;28;20115;-68
2022/03/22 09:19:14;;;;;;;34.53;20.53;;;;;;;;;;5089160;28;20177;-68
2022/03/22 09:21:40;;;;;;;31.83;21.00;;;;;;;;;;5105445;28;20116;-68
2022/03/22 09:24:07;;;;;;;28.83;20.37;;;;;;;;;;5095442;28;20042;-68
2022/03/22 09:26:33;;;;;;;33.23;19.40;;;;;;;;;;5088450;28;20040;-68
2022/03/22 09:29:01;;;;;;;29.87;19.33;;;;;;;;;;5095044;28;20040;-68
2022/03/22 09:31:27;;;;;;;31.83;19.63;;;;;;;;;;5089156;28;20047;-68
2022/03/22 09:33:54;;;;;;;30.40;21.03;;;;;;;;;;5090304;28;20554;-68
2022/03/22 09:36:20;;;;;;;29.47;19.83;;;;;;;;;;5099516;28;20192;-69
2022/03/22 09:38:46;;;;;;;33.67;20.67;;;;;;;;;;5098965;28;20075;-68
2022/03/22 09:41:15;;;;;;;31.90;21.13;;;;;;;;;;5088460;28;20075;-68
2022/03/22 09:43:46;;;;;;;30.73;20.40;;;;;;;;;;5088153;28;20043;-68
2022/03/22 09:46:14;;;;;;;30.07;20.47;;;;;;;;;;5103118;28;20465;-68
2022/03/22 09:48:40;;;;;;;26.70;19.27;;;;;;;;;;5097702;28;20052;-68
2022/03/22 09:53:52;;;;;;;29.00;19.77;;;;;;;;;;5103370;28;20040;-68
2022/03/22 09:56:20;;;;;;;26.43;19.63;;;;;;;;;;5102019;28;20052;-68
2022/03/22 09:58:47;;;;;;;28.93;19.83;;;;;;;;;;5088066;28;20048;-69
2022/03/22 10:01:13;;;;;;;27.07;20.07;;;;;;;;;;5088437;28;20055;-69
2022/03/22 10:03:39;;;;;;;30.90;21.37;;;;;;;;;;5105167;28;20502;-68
2022/03/22 10:06:07;;;;;;;29.93;20.40;;;;;;;;;;5084905;28;20055;-69
2022/03/22 10:08:36;;;;;;;30.90;19.43;;;;;;;;;;5088328;28;20165;-68
2022/03/22 10:11:03;;;;;;;28.40;20.00;;;;;;;;;;5091757;28;20035;-68
2022/03/22 10:13:29;;;;;;;32.33;21.00;;;;;;;;;;5108711;28;20493;-68
2022/03/22 10:16:03;;;;;;;25.43;20.07;;;;;;;;;;5088848;28;20083;-68
2022/03/22 10:18:29;;;;;;;34.87;20.50;;;;;;;;;;5091149;28;20044;-66
2022/03/22 10:21:03;;;;;;;30.07;20.47;;;;;;;;;;5092108;28;20117;-66
2022/03/22 10:23:31;;;;;;;27.47;20.23;;;;;;;;;;5108360;28;20103;-66
2022/03/22 10:26:06;;;;;;;31.43;19.87;;;;;;;;;;5109443;28;20047;-67
2022/03/22 10:28:33;;;;;;;33.23;20.93;;;;;;;;;;5092370;28;20123;-67
2022/03/22 10:30:59;;;;;;;27.07;18.97;;;;;;;;;;5092203;28;20490;-67
2022/03/22 10:33:25;;;;;;;27.90;19.50;;;;;;;;;;5093366;28;20850;-67
2022/03/22 10:35:51;;;;;;;25.90;20.17;;;;;;;;;;5094178;28;20774;-67
2022/03/22 10:38:19;;;;;;;27.93;20.50;;;;;;;;;;5107840;28;20055;-67
2022/03/22 10:40:46;;;;;;;31.80;20.77;;;;;;;;;;5096670;28;20043;-67
2022/03/22 10:43:18;;;;;;;31.30;20.90;;;;;;;;;;5111023;28;20066;-67
2022/03/22 10:45:56;;;;;;;26.00;20.07;;;;;;;;;;5111577;28;20490;-67
2022/03/22 10:48:27;;;;;;;29.33;20.17;;;;;;;;;;5093850;28;20077;-67
2022/03/22 10:50:54;;;;;;;28.00;20.17;;;;;;;;;;5089831;28;20459;-67
2022/03/22 10:53:21;;;;;;;30.83;21.53;;;;;;;;;;5072707;28;20055;-67
2022/03/22 10:55:47;;;;;;;28.37;19.93;;;;;;;;;;5092995;28;20119;-68
2022/03/22 10:58:14;;;;;;;27.90;19.80;;;;;;;;;;5111948;28;20052;-67
2022/03/22 11:00:44;;;;;;;28.43;19.20;;;;;;;;;;5110933;28;20075;-67
2022/03/22 11:03:10;;;;;;;27.00;20.03;;;;;;;;;;5091560;28;20055;-67
2022/03/22 11:05:36;;;;;;;30.13;21.20;;;;;;;;;;5090868;28;20040;-67
2022/03/22 11:08:03;;;;;;;25.30;18.43;;;;;;;;;;5091519;28;20083;-67
2022/03/22 11:10:29;;;;;;;26.00;20.40;;;;;;;;;;5091286;28;20051;-67
2022/03/22 11:12:59;;;;;;;30.27;21.43;;;;;;;;;;5096259;28;20486;-67
2022/03/22 11:15:27;;;;;;;28.90;19.97;;;;;;;;;;5105066;28;20055;-67
2022/03/22 11:17:53;;;;;;;31.37;21.87;;;;;;;;;;5092139;28;20494;-67
2022/03/22 11:20:22;;;;;;;26.27;22.20;;;;;;;;;;5090995;28;20032;-67
2022/03/22 11:22:50;;;;;;;24.48;19.50;;;;;;;;;;5090211;28;20056;-68
2022/03/22 11:25:20;;;;;;;25.73;20.27;;;;;;;;;;5089339;28;20689;-67
2022/03/22 11:28:00;;;;;;;27.47;20.20;;;;;;;;;;5088973;28;20048;-67
2022/03/22 11:30:27;;;;;;;29.92;20.95;;;;;;;;;;5090528;28;20093;-67
2022/03/22 11:35:51;;;;;;;29.35;20.48;;;;;;;;;;5090595;28;20059;-67
2022/03/22 11:38:35;;;;;;;28.63;21.33;;;;;;;;;;5090700;28;20048;-66
2022/03/22 11:43:46;;;;;;;30.35;21.85;;;;;;;;;;5090075;28;20506;-67
2022/03/22 11:46:13;;;;;;;29.33;22.08;;;;;;;;;;5090305;28;20036;-67
2022/03/22 11:48:39;;;;;;;27.70;21.33;;;;;;;;;;5090271;28;20509;-67
2022/03/22 11:51:09;;;;;;;36.17;23.63;;;;;;;;;;5090021;28;20051;-67
2022/03/22 11:53:42;;;;;;;34.15;21.65;;;;;;;;;;5090288;28;20047;-67
2022/03/22 11:56:09;;;;;;;28.33;22.90;;;;;;;;;;5090121;28;20040;-67
2022/03/22 11:58:35;;;;;;;30.33;20.33;;;;;;;;;;5090150;28;20139;-67
2022/03/22 12:01:02;;;;;;;35.95;22.98;;;;;;;;;;5090109;28;20048;-67
2022/03/22 12:03:32;;;;;;;27.27;21.88;;;;;;;;;;5103707;28;20047;-67
2022/03/22 12:06:09;;;;;;;26.73;21.52;;;;;;;;;;5110298;28;20043;-67
2022/03/22 12:08:35;;;;;;;27.48;21.42;;;;;;;;;;5109762;28;20040;-67
2022/03/22 12:11:01;;;;;;;28.05;21.92;;;;;;;;;;5110585;28;20043;-67
2022/03/22 12:13:30;;;;;;;30.70;19.83;;;;;;;;;;5110146;28;20040;-67
2022/03/22 12:15:59;;;;;;;32.30;22.40;;;;;;;;;;5109705;28;20413;-67
2022/03/22 12:18:29;;;;;;;25.13;20.13;;;;;;;;;;5109268;28;20046;-67
2022/03/22 12:20:58;;;;;;;27.60;21.67;;;;;;;;;;5109814;28;20061;-67
2022/03/22 12:23:24;;;;;;;23.33;20.42;;;;;;;;;;5110070;28;20405;-67
2022/03/22 12:25:51;;;;;;;24.80;19.38;;;;;;;;;;5110059;28;20475;-67
2022/03/22 12:28:17;;;;;;;26.40;19.48;;;;;;;;;;5099583;28;20058;-67
2022/03/22 12:30:44;;;;;;;26.25;19.13;;;;;;;;;;5103370;28;20040;-67
2022/03/22 12:33:14;;;;;;;28.73;19.08;;;;;;;;;;5109881;28;20101;-67
2022/03/22 12:35:41;;;;;;;25.02;18.35;;;;;;;;;;5109648;28;20051;-67
2022/03/22 12:38:08;;;;;;;23.38;18.50;;;;;;;;;;5109891;28;20089;-67
2022/03/22 12:40:35;;;;;;;28.00;18.98;;;;;;;;;;5108275;28;20134;-67
2022/03/22 12:43:02;;;;;;;22.52;18.55;;;;;;;;;;5109895;28;20134;-67
2022/03/22 12:45:29;;;;;;;25.13;19.20;;;;;;;;;;5109497;28;20072;-67
2022/03/22 12:47:56;;;;;;;23.98;18.27;;;;;;;;;;5109323;28;20471;-67
2022/03/22 12:50:23;;;;;;;23.70;19.25;;;;;;;;;;5109383;28;20134;-67
2022/03/22 12:52:50;;;;;;;27.85;18.25;;;;;;;;;;5109621;28;20469;-67
2022/03/22 12:55:17;;;;;;;25.67;18.42;;;;;;;;;;5108691;28;20052;-67
2022/03/22 12:57:48;;;;;;;27.10;19.83;;;;;;;;;;5109324;28;20054;-67
2022/03/22 13:00:35;;;;;;;23.63;19.10;;;;;;;;;;5109578;28;20047;-67
2022/03/22 13:03:10;;;;;;;26.77;19.75;;;;;;;;;;5091279;28;20054;-67
2022/03/22 13:05:40;;;;;;;24.45;19.80;;;;;;;;;;5108965;28;20130;-67
2022/03/22 13:08:12;;;;;;;23.90;19.33;;;;;;;;;;5109388;28;20048;-67
2022/03/22 13:13:22;;;;;;;24.00;19.05;;;;;;;;;;5088788;28;20066;-68
2022/03/22 13:15:54;;;;;;;24.73;18.88;;;;;;;;;;5088672;28;20051;-67
2022/03/22 13:18:20;;;;;;;28.27;19.63;;;;;;;;;;5088925;28;20494;-67
2022/03/22 13:20:47;;;;;;;30.08;20.33;;;;;;;;;;5088699;28;20127;-67
2022/03/22 13:23:14;;;;;;;27.63;19.42;;;;;;;;;;5088902;28;20048;-67
2022/03/22 13:25:41;;;;;;;24.45;20.45;;;;;;;;;;5088939;28;20054;-67
2022/03/22 13:28:07;;;;;;;22.73;18.95;;;;;;;;;;5088370;28;20238;-67
2022/03/22 13:30:34;;;;;;;25.02;20.42;;;;;;;;;;5088832;28;20044;-67
2022/03/22 13:33:05;;;;;;;30.20;19.17;;;;;;;;;;5088716;28;20040;-67
2022/03/22 13:35:31;;;;;;;26.23;19.92;;;;;;;;;;5097785;28;20104;-67
2022/03/22 13:37:57;;;;;;;28.17;20.10;;;;;;;;;;5108697;28;20443;-67
2022/03/22 13:40:23;;;;;;;22.17;18.33;;;;;;;;;;5090402;28;20040;-67
2022/03/22 13:43:00;;;;;;;28.60;19.20;;;;;;;;;;5108774;28;20100;-67
2022/03/22 13:45:26;;;;;;;24.30;18.45;;;;;;;;;;5108584;28;20047;-67
2022/03/22 13:47:52;;;;;;;22.40;18.85;;;;;;;;;;5107801;28;20493;-67
2022/03/22 13:50:20;;;;;;;23.95;18.13;;;;;;;;;;5087351;28;20131;-67
2022/03/22 13:52:47;;;;;;;26.25;17.83;;;;;;;;;;5090945;28;20044;-67
2022/03/22 13:55:13;;;;;;;25.48;19.58;;;;;;;;;;5092109;28;20044;-67
2022/03/22 13:57:41;;;;;;;24.08;18.65;;;;;;;;;;5092184;28;20490;-67
2022/03/22 14:00:07;;;;;;;23.25;18.42;;;;;;;;;;5092320;28;20036;-67
2022/03/22 14:02:33;;;;;;;24.10;19.90;;;;;;;;;;5074486;28;20066;-67
2022/03/22 14:04:59;;;;;;;22.67;18.27;;;;;;;;;;5091981;28;20505;-67
2022/03/22 14:07:25;;;;;;;22.38;18.85;;;;;;;;;;5074447;28;20136;-67
2022/03/22 14:09:51;;;;;;;22.63;17.45;;;;;;;;;;5092261;28;20109;-67
2022/03/22 14:12:17;;;;;;;21.67;18.15;;;;;;;;;;5093488;28;20048;-67
2022/03/22 14:14:43;;;;;;;23.25;18.00;;;;;;;;;;5093089;28;21037;-67
2022/03/22 14:17:09;;;;;;;20.70;16.10;;;;;;;;;;5092814;28;20071;-67
2022/03/22 14:19:36;;;;;;;23.13;17.27;;;;;;;;;;5097926;28;20031;-67
2022/03/22 14:22:02;;;;;;;21.60;16.80;;;;;;;;;;5108480;28;20438;-67
2022/03/22 14:24:28;;;;;;;20.88;16.27;;;;;;;;;;5094763;28;20044;-67
2022/03/22 14:26:55;;;;;;;24.13;16.92;;;;;;;;;;5098343;28;20134;-67
2022/03/22 14:29:21;;;;;;;24.90;17.10;;;;;;;;;;5113655;28;20126;-67
2022/03/22 14:31:47;;;;;;;19.42;17.02;;;;;;;;;;5113195;28;20055;-67
2022/03/22 14:35:46;;;;;;;22.25;18.05;;;;;;;;;;5112128;28;20066;-67
2022/03/22 14:36:59;;;;;;;21.55;17.65;;;;;;;;;;5112097;28;20050;-67
2022/03/22 14:39:27;;;;;;;25.33;19.13;;;;;;;;;;5105559;28;20047;-67
2022/03/22 14:41:55;;;;;;;24.73;18.15;;;;;;;;;;5092946;28;20138;-67
2022/03/22 14:44:21;;;;;;;27.67;19.42;;;;;;;;;;5092799;28;20505;-67
2022/03/22 14:46:51;;;;;;;22.42;17.48;;;;;;;;;;5092708;28;20395;-67
2022/03/22 14:49:18;;;;;;;24.00;16.92;;;;;;;;;;5093224;28;20502;-67
2022/03/22 14:54:32;;;;;;;20.25;14.25;;;;;;;;;;5099646;28;20486;-67
2022/03/22 14:59:45;;;;;;;19.27;14.48;;;;;;;;;;5092193;28;20048;-67